sensor_id;sensor_type;location;lat;lon;timestamp;P1;durP1;ratioP1;P2;durP2;ratioP2
55368;SDS011;41247;49.736;8.752;2024-01-06T00:02:39;8.77;;;2.00;;
55368;SDS011;41247;49.736;8.752;2024-01-06T00:06:22;8.73;;;1.98;;
55368;SDS011;41247;49.736;8.752;2024-01-06T00:10:02;6.32;;;1.65;;
55368;SDS011;41247;49.736;8.752;2024-01-06T00:13:43;12.63;;;2.00;;
55368;SDS011;41247;49.736;8.752;2024-01-06T00:17:24;9.70;;;2.10;;
55368;SDS011;41247;49.736;8.752;2024-01-06T00:21:04;12.35;;;2.25;;
55368;SDS011;41247;49.736;8.752;2024-01-06T00:24:47;12.10;;;2.40;;
55368;SDS011;41247;49.736;8.752;2024-01-06T00:28:28;6.38;;;2.38;;
55368;SDS011;41247;49.736;8.752;2024-01-06T00:32:08;7.78;;;2.05;;
55368;SDS011;41247;49.736;8.752;2024-01-06T00:35:49;10.45;;;2.47;;
55368;SDS011;41247;49.736;8.752;2024-01-06T00:39:29;10.75;;;1.92;;
55368;SDS011;41247;49.736;8.752;2024-01-06T00:43:10;13.68;;;3.30;;
55368;SDS011;41247;49.736;8.752;2024-01-06T00:46:51;6.43;;;2.30;;
55368;SDS011;41247;49.736;8.752;2024-01-06T00:50:31;10.07;;;2.30;;
55368;SDS011;41247;49.736;8.752;2024-01-06T00:54:12;6.07;;;2.50;;
55368;SDS011;41247;49.736;8.752;2024-01-06T00:57:53;9.55;;;2.70;;
55368;SDS011;41247;49.736;8.752;2024-01-06T01:01:34;11.85;;;2.50;;
55368;SDS011;41247;49.736;8.752;2024-01-06T01:05:14;5.07;;;2.20;;
55368;SDS011;41247;49.736;8.752;2024-01-06T01:08:55;9.45;;;2.58;;
55368;SDS011;41247;49.736;8.752;2024-01-06T01:12:36;11.55;;;2.55;;
55368;SDS011;41247;49.736;8.752;2024-01-06T01:16:17;7.35;;;2.30;;
55368;SDS011;41247;49.736;8.752;2024-01-06T01:19:58;8.38;;;2.38;;
55368;SDS011;41247;49.736;8.752;2024-01-06T01:23:39;12.18;;;2.20;;
55368;SDS011;41247;49.736;8.752;2024-01-06T01:27:19;12.57;;;2.53;;
55368;SDS011;41247;49.736;8.752;2024-01-06T01:31:00;11.02;;;2.55;;
55368;SDS011;41247;49.736;8.752;2024-01-06T01:34:40;15.63;;;2.55;;
55368;SDS011;41247;49.736;8.752;2024-01-06T01:38:21;10.93;;;3.17;;
55368;SDS011;41247;49.736;8.752;2024-01-06T01:42:01;11.65;;;3.03;;
55368;SDS011;41247;49.736;8.752;2024-01-06T01:45:42;7.75;;;2.55;;
55368;SDS011;41247;49.736;8.752;2024-01-06T01:49:23;12.90;;;2.72;;
55368;SDS011;41247;49.736;8.752;2024-01-06T01:53:04;5.55;;;2.47;;
55368;SDS011;41247;49.736;8.752;2024-01-06T01:56:44;10.15;;;2.97;;
55368;SDS011;41247;49.736;8.752;2024-01-06T02:00:25;14.90;;;4.18;;
55368;SDS011;41247;49.736;8.752;2024-01-06T02:04:08;12.35;;;3.58;;
55368;SDS011;41247;49.736;8.752;2024-01-06T02:07:49;10.85;;;3.40;;
55368;SDS011;41247;49.736;8.752;2024-01-06T02:11:29;7.70;;;2.83;;
55368;SDS011;41247;49.736;8.752;2024-01-06T02:15:10;11.57;;;3.40;;
55368;SDS011;41247;49.736;8.752;2024-01-06T02:18:51;13.63;;;3.60;;
55368;SDS011;41247;49.736;8.752;2024-01-06T02:22:31;11.00;;;3.40;;
55368;SDS011;41247;49.736;8.752;2024-01-06T02:26:12;8.50;;;3.00;;
55368;SDS011;41247;49.736;8.752;2024-01-06T02:33:46;10.98;;;3.30;;
55368;SDS011;41247;49.736;8.752;2024-01-06T02:37:27;10.52;;;3.20;;
55368;SDS011;41247;49.736;8.752;2024-01-06T02:41:07;14.52;;;3.28;;
55368;SDS011;41247;49.736;8.752;2024-01-06T02:44:48;10.68;;;3.28;;
55368;SDS011;41247;49.736;8.752;2024-01-06T02:48:28;14.48;;;2.95;;
55368;SDS011;41247;49.736;8.752;2024-01-06T02:52:09;9.15;;;2.72;;
55368;SDS011;41247;49.736;8.752;2024-01-06T02:55:49;11.05;;;3.22;;
55368;SDS011;41247;49.736;8.752;2024-01-06T02:59:30;9.55;;;3.13;;
55368;SDS011;41247;49.736;8.752;2024-01-06T03:03:11;11.75;;;3.00;;
55368;SDS011;41247;49.736;8.752;2024-01-06T03:06:51;12.45;;;2.72;;
55368;SDS011;41247;49.736;8.752;2024-01-06T03:10:32;8.77;;;2.60;;
55368;SDS011;41247;49.736;8.752;2024-01-06T03:14:12;8.55;;;2.85;;
55368;SDS011;41247;49.736;8.752;2024-01-06T03:17:53;11.23;;;3.63;;
55368;SDS011;41247;49.736;8.752;2024-01-06T03:21:33;9.88;;;2.88;;
55368;SDS011;41247;49.736;8.752;2024-01-06T03:25:14;14.50;;;2.85;;
55368;SDS011;41247;49.736;8.752;2024-01-06T03:28:55;11.98;;;3.05;;
55368;SDS011;41247;49.736;8.752;2024-01-06T03:32:35;7.55;;;3.03;;
55368;SDS011;41247;49.736;8.752;2024-01-06T03:36:18;10.45;;;2.45;;
55368;SDS011;41247;49.736;8.752;2024-01-06T03:39:59;10.60;;;3.20;;
55368;SDS011;41247;49.736;8.752;2024-01-06T03:43:39;10.00;;;2.80;;
55368;SDS011;41247;49.736;8.752;2024-01-06T03:47:20;8.55;;;2.40;;
55368;SDS011;41247;49.736;8.752;2024-01-06T03:51:01;8.43;;;2.70;;
55368;SDS011;41247;49.736;8.752;2024-01-06T03:54:42;17.63;;;3.35;;
55368;SDS011;41247;49.736;8.752;2024-01-06T03:58:23;10.10;;;3.17;;
55368;SDS011;41247;49.736;8.752;2024-01-06T04:02:03;8.95;;;3.13;;
55368;SDS011;41247;49.736;8.752;2024-01-06T04:05:46;6.70;;;2.50;;
55368;SDS011;41247;49.736;8.752;2024-01-06T04:09:27;8.18;;;2.42;;
55368;SDS011;41247;49.736;8.752;2024-01-06T04:13:07;11.18;;;2.83;;
55368;SDS011;41247;49.736;8.752;2024-01-06T04:16:48;12.75;;;3.17;;
55368;SDS011;41247;49.736;8.752;2024-01-06T04:20:29;11.35;;;3.03;;
55368;SDS011;41247;49.736;8.752;2024-01-06T04:24:10;10.10;;;2.92;;
55368;SDS011;41247;49.736;8.752;2024-01-06T04:27:50;16.65;;;3.40;;
55368;SDS011;41247;49.736;8.752;2024-01-06T04:31:31;12.98;;;3.47;;
55368;SDS011;41247;49.736;8.752;2024-01-06T04:35:12;13.20;;;3.47;;
55368;SDS011;41247;49.736;8.752;2024-01-06T04:38:52;9.30;;;2.83;;
55368;SDS011;41247;49.736;8.752;2024-01-06T04:42:34;12.88;;;3.60;;
55368;SDS011;41247;49.736;8.752;2024-01-06T04:46:14;11.90;;;4.38;;
55368;SDS011;41247;49.736;8.752;2024-01-06T04:49:55;8.45;;;3.10;;
55368;SDS011;41247;49.736;8.752;2024-01-06T04:53:36;9.63;;;4.13;;
55368;SDS011;41247;49.736;8.752;2024-01-06T04:57:18;8.10;;;3.88;;
55368;SDS011;41247;49.736;8.752;2024-01-06T05:00:59;15.70;;;3.70;;
55368;SDS011;41247;49.736;8.752;2024-01-06T05:04:39;7.53;;;3.60;;
55368;SDS011;41247;49.736;8.752;2024-01-06T05:08:20;10.75;;;3.55;;
55368;SDS011;41247;49.736;8.752;2024-01-06T05:12:01;14.40;;;3.40;;
55368;SDS011;41247;49.736;8.752;2024-01-06T05:15:42;10.82;;;3.85;;
55368;SDS011;41247;49.736;8.752;2024-01-06T05:19:23;7.68;;;3.17;;
55368;SDS011;41247;49.736;8.752;2024-01-06T05:23:04;8.55;;;3.17;;
55368;SDS011;41247;49.736;8.752;2024-01-06T05:26:44;13.88;;;3.70;;
55368;SDS011;41247;49.736;8.752;2024-01-06T05:30:25;8.88;;;3.08;;
55368;SDS011;41247;49.736;8.752;2024-01-06T05:34:05;11.07;;;3.45;;
55368;SDS011;41247;49.736;8.752;2024-01-06T05:37:46;9.00;;;3.15;;
55368;SDS011;41247;49.736;8.752;2024-01-06T05:41:27;7.32;;;2.90;;
55368;SDS011;41247;49.736;8.752;2024-01-06T05:45:10;10.48;;;3.58;;
55368;SDS011;41247;49.736;8.752;2024-01-06T05:52:32;7.18;;;2.50;;
55368;SDS011;41247;49.736;8.752;2024-01-06T05:56:21;4.97;;;2.65;;
55368;SDS011;41247;49.736;8.752;2024-01-06T06:00:03;6.95;;;3.03;;
55368;SDS011;41247;49.736;8.752;2024-01-06T06:03:48;8.73;;;3.40;;
55368;SDS011;41247;49.736;8.752;2024-01-06T06:07:29;7.85;;;3.85;;
55368;SDS011;41247;49.736;8.752;2024-01-06T06:11:09;7.88;;;3.40;;
55368;SDS011;41247;49.736;8.752;2024-01-06T06:14:50;8.05;;;3.78;;
55368;SDS011;41247;49.736;8.752;2024-01-06T06:18:30;8.27;;;4.13;;
55368;SDS011;41247;49.736;8.752;2024-01-06T06:22:11;14.82;;;4.28;;
55368;SDS011;41247;49.736;8.752;2024-01-06T06:25:52;6.50;;;4.22;;
55368;SDS011;41247;49.736;8.752;2024-01-06T06:29:32;7.75;;;4.30;;
55368;SDS011;41247;49.736;8.752;2024-01-06T06:33:13;8.15;;;4.00;;
55368;SDS011;41247;49.736;8.752;2024-01-06T06:36:53;6.15;;;3.58;;
55368;SDS011;41247;49.736;8.752;2024-01-06T06:40:34;8.18;;;4.22;;
55368;SDS011;41247;49.736;8.752;2024-01-06T06:44:14;7.22;;;3.92;;
55368;SDS011;41247;49.736;8.752;2024-01-06T06:47:55;11.90;;;4.40;;
55368;SDS011;41247;49.736;8.752;2024-01-06T06:51:36;9.13;;;4.28;;
55368;SDS011;41247;49.736;8.752;2024-01-06T06:55:16;9.77;;;4.70;;
55368;SDS011;41247;49.736;8.752;2024-01-06T06:58:57;11.43;;;5.30;;
55368;SDS011;41247;49.736;8.752;2024-01-06T07:02:37;10.30;;;5.03;;
55368;SDS011;41247;49.736;8.752;2024-01-06T07:06:20;13.50;;;4.78;;
55368;SDS011;41247;49.736;8.752;2024-01-06T07:10:01;13.98;;;5.80;;
55368;SDS011;41247;49.736;8.752;2024-01-06T07:13:43;11.40;;;5.28;;
55368;SDS011;41247;49.736;8.752;2024-01-06T07:17:24;11.68;;;5.22;;
55368;SDS011;41247;49.736;8.752;2024-01-06T07:21:05;9.48;;;5.13;;
55368;SDS011;41247;49.736;8.752;2024-01-06T07:24:46;12.90;;;5.88;;
55368;SDS011;41247;49.736;8.752;2024-01-06T07:28:27;14.35;;;6.03;;
55368;SDS011;41247;49.736;8.752;2024-01-06T07:32:14;18.48;;;6.97;;
55368;SDS011;41247;49.736;8.752;2024-01-06T07:35:57;12.05;;;6.00;;
55368;SDS011;41247;49.736;8.752;2024-01-06T07:40:03;13.73;;;6.85;;
55368;SDS011;41247;49.736;8.752;2024-01-06T07:44:01;14.02;;;5.25;;
55368;SDS011;41247;49.736;8.752;2024-01-06T07:47:48;15.23;;;5.72;;
55368;SDS011;41247;49.736;8.752;2024-01-06T07:51:34;14.60;;;5.57;;
55368;SDS011;41247;49.736;8.752;2024-01-06T07:55:15;10.82;;;5.03;;
55368;SDS011;41247;49.736;8.752;2024-01-06T07:59:00;11.13;;;5.25;;
55368;SDS011;41247;49.736;8.752;2024-01-06T08:02:41;10.82;;;5.82;;
55368;SDS011;41247;49.736;8.752;2024-01-06T08:06:22;13.13;;;6.13;;
55368;SDS011;41247;49.736;8.752;2024-01-06T08:10:03;13.88;;;6.30;;
55368;SDS011;41247;49.736;8.752;2024-01-06T08:13:44;15.43;;;6.38;;
55368;SDS011;41247;49.736;8.752;2024-01-06T08:17:25;11.30;;;5.75;;
55368;SDS011;41247;49.736;8.752;2024-01-06T08:21:05;19.17;;;7.25;;
55368;SDS011;41247;49.736;8.752;2024-01-06T08:24:46;14.75;;;6.75;;
55368;SDS011;41247;49.736;8.752;2024-01-06T08:28:27;13.43;;;6.22;;
55368;SDS011;41247;49.736;8.752;2024-01-06T08:35:51;14.20;;;6.40;;
55368;SDS011;41247;49.736;8.752;2024-01-06T08:39:31;15.15;;;6.85;;
55368;SDS011;41247;49.736;8.752;2024-01-06T08:43:12;17.27;;;6.72;;
55368;SDS011;41247;49.736;8.752;2024-01-06T08:46:53;15.05;;;7.03;;
55368;SDS011;41247;49.736;8.752;2024-01-06T08:50:33;15.38;;;7.13;;
55368;SDS011;41247;49.736;8.752;2024-01-06T08:54:14;12.80;;;6.57;;
55368;SDS011;41247;49.736;8.752;2024-01-06T08:57:56;14.38;;;6.35;;
55368;SDS011;41247;49.736;8.752;2024-01-06T09:01:37;17.77;;;7.78;;
55368;SDS011;41247;49.736;8.752;2024-01-06T09:05:18;15.98;;;7.82;;
55368;SDS011;41247;49.736;8.752;2024-01-06T09:08:58;17.27;;;8.23;;
55368;SDS011;41247;49.736;8.752;2024-01-06T09:12:39;17.40;;;8.27;;
55368;SDS011;41247;49.736;8.752;2024-01-06T09:16:19;17.48;;;8.45;;
55368;SDS011;41247;49.736;8.752;2024-01-06T09:20:00;19.58;;;8.98;;
55368;SDS011;41247;49.736;8.752;2024-01-06T09:23:42;20.67;;;8.02;;
55368;SDS011;41247;49.736;8.752;2024-01-06T09:27:22;17.88;;;8.57;;
55368;SDS011;41247;49.736;8.752;2024-01-06T09:31:03;19.10;;;8.73;;
55368;SDS011;41247;49.736;8.752;2024-01-06T09:34:44;18.98;;;9.00;;
55368;SDS011;41247;49.736;8.752;2024-01-06T09:38:24;18.65;;;8.05;;
55368;SDS011;41247;49.736;8.752;2024-01-06T09:42:05;13.45;;;7.93;;
55368;SDS011;41247;49.736;8.752;2024-01-06T09:45:52;23.48;;;8.25;;
55368;SDS011;41247;49.736;8.752;2024-01-06T09:49:53;17.73;;;8.50;;
55368;SDS011;41247;49.736;8.752;2024-01-06T09:53:35;20.95;;;8.82;;
55368;SDS011;41247;49.736;8.752;2024-01-06T09:57:23;17.38;;;8.27;;
55368;SDS011;41247;49.736;8.752;2024-01-06T10:01:04;20.20;;;8.63;;
55368;SDS011;41247;49.736;8.752;2024-01-06T10:04:46;19.02;;;8.32;;
55368;SDS011;41247;49.736;8.752;2024-01-06T10:08:27;17.98;;;9.57;;
55368;SDS011;41247;49.736;8.752;2024-01-06T10:12:07;19.27;;;9.30;;
55368;SDS011;41247;49.736;8.752;2024-01-06T10:15:48;19.45;;;9.35;;
55368;SDS011;41247;49.736;8.752;2024-01-06T10:19:30;18.25;;;8.50;;
55368;SDS011;41247;49.736;8.752;2024-01-06T10:23:11;19.00;;;8.88;;
55368;SDS011;41247;49.736;8.752;2024-01-06T10:26:51;17.08;;;8.82;;
55368;SDS011;41247;49.736;8.752;2024-01-06T10:30:32;18.65;;;8.88;;
55368;SDS011;41247;49.736;8.752;2024-01-06T10:34:13;19.30;;;8.57;;
55368;SDS011;41247;49.736;8.752;2024-01-06T10:37:54;18.90;;;8.52;;
55368;SDS011;41247;49.736;8.752;2024-01-06T10:41:35;15.40;;;8.55;;
55368;SDS011;41247;49.736;8.752;2024-01-06T10:45:15;15.77;;;8.60;;
55368;SDS011;41247;49.736;8.752;2024-01-06T10:48:56;19.55;;;9.45;;
55368;SDS011;41247;49.736;8.752;2024-01-06T10:52:38;15.75;;;8.57;;
55368;SDS011;41247;49.736;8.752;2024-01-06T10:56:19;19.50;;;9.48;;
55368;SDS011;41247;49.736;8.752;2024-01-06T11:00:02;16.35;;;9.02;;
55368;SDS011;41247;49.736;8.752;2024-01-06T11:03:43;21.58;;;9.50;;
55368;SDS011;41247;49.736;8.752;2024-01-06T11:07:25;16.67;;;9.68;;
55368;SDS011;41247;49.736;8.752;2024-01-06T11:11:06;17.05;;;9.38;;
55368;SDS011;41247;49.736;8.752;2024-01-06T11:14:48;21.48;;;10.43;;
55368;SDS011;41247;49.736;8.752;2024-01-06T11:18:35;21.50;;;9.73;;
55368;SDS011;41247;49.736;8.752;2024-01-06T11:22:28;22.95;;;10.95;;
55368;SDS011;41247;49.736;8.752;2024-01-06T11:26:10;22.55;;;10.38;;
55368;SDS011;41247;49.736;8.752;2024-01-06T11:29:51;18.25;;;10.15;;
55368;SDS011;41247;49.736;8.752;2024-01-06T11:33:32;25.52;;;10.95;;
55368;SDS011;41247;49.736;8.752;2024-01-06T11:37:13;24.98;;;12.15;;
55368;SDS011;41247;49.736;8.752;2024-01-06T11:40:53;21.30;;;10.18;;
55368;SDS011;41247;49.736;8.752;2024-01-06T11:44:34;25.30;;;10.80;;
55368;SDS011;41247;49.736;8.752;2024-01-06T11:48:18;17.98;;;9.75;;
55368;SDS011;41247;49.736;8.752;2024-01-06T11:52:02;22.25;;;10.32;;
55368;SDS011;41247;49.736;8.752;2024-01-06T11:55:43;22.67;;;10.13;;
55368;SDS011;41247;49.736;8.752;2024-01-06T11:59:23;17.65;;;9.60;;
55368;SDS011;41247;49.736;8.752;2024-01-06T12:03:04;15.75;;;8.70;;
55368;SDS011;41247;49.736;8.752;2024-01-06T12:06:45;19.35;;;9.30;;
55368;SDS011;41247;49.736;8.752;2024-01-06T12:10:26;19.27;;;9.73;;
55368;SDS011;41247;49.736;8.752;2024-01-06T12:14:09;18.53;;;9.33;;
55368;SDS011;41247;49.736;8.752;2024-01-06T12:17:49;20.88;;;9.57;;
55368;SDS011;41247;49.736;8.752;2024-01-06T12:21:30;19.45;;;10.35;;
55368;SDS011;41247;49.736;8.752;2024-01-06T12:25:11;14.77;;;8.75;;
55368;SDS011;41247;49.736;8.752;2024-01-06T12:28:51;15.50;;;8.85;;
55368;SDS011;41247;49.736;8.752;2024-01-06T12:32:32;18.00;;;9.18;;
55368;SDS011;41247;49.736;8.752;2024-01-06T12:36:12;17.17;;;8.80;;
55368;SDS011;41247;49.736;8.752;2024-01-06T12:39:53;15.65;;;8.82;;
55368;SDS011;41247;49.736;8.752;2024-01-06T12:43:34;19.60;;;9.05;;
55368;SDS011;41247;49.736;8.752;2024-01-06T12:47:14;17.33;;;8.63;;
55368;SDS011;41247;49.736;8.752;2024-01-06T12:50:55;19.00;;;8.73;;
55368;SDS011;41247;49.736;8.752;2024-01-06T12:54:35;17.23;;;8.55;;
55368;SDS011;41247;49.736;8.752;2024-01-06T12:58:16;17.40;;;9.05;;
55368;SDS011;41247;49.736;8.752;2024-01-06T13:01:57;22.02;;;10.38;;
55368;SDS011;41247;49.736;8.752;2024-01-06T13:05:37;20.27;;;9.70;;
55368;SDS011;41247;49.736;8.752;2024-01-06T13:09:18;19.20;;;10.05;;
55368;SDS011;41247;49.736;8.752;2024-01-06T13:12:58;18.73;;;10.18;;
55368;SDS011;41247;49.736;8.752;2024-01-06T13:16:39;18.73;;;10.13;;
55368;SDS011;41247;49.736;8.752;2024-01-06T13:20:20;17.25;;;9.73;;
55368;SDS011;41247;49.736;8.752;2024-01-06T13:24:01;25.25;;;11.57;;
55368;SDS011;41247;49.736;8.752;2024-01-06T13:27:41;24.35;;;11.60;;
55368;SDS011;41247;49.736;8.752;2024-01-06T13:31:22;27.25;;;12.20;;
55368;SDS011;41247;49.736;8.752;2024-01-06T13:35:03;25.02;;;12.10;;
55368;SDS011;41247;49.736;8.752;2024-01-06T13:38:44;23.17;;;11.73;;
55368;SDS011;41247;49.736;8.752;2024-01-06T13:42:24;24.98;;;11.73;;
55368;SDS011;41247;49.736;8.752;2024-01-06T13:46:05;35.67;;;15.20;;
55368;SDS011;41247;49.736;8.752;2024-01-06T13:49:46;22.08;;;11.63;;
55368;SDS011;41247;49.736;8.752;2024-01-06T13:53:26;23.30;;;11.77;;
55368;SDS011;41247;49.736;8.752;2024-01-06T13:57:07;26.67;;;11.20;;
55368;SDS011;41247;49.736;8.752;2024-01-06T14:00:47;22.52;;;11.15;;
55368;SDS011;41247;49.736;8.752;2024-01-06T14:04:28;23.50;;;12.93;;
55368;SDS011;41247;49.736;8.752;2024-01-06T14:08:09;26.40;;;11.73;;
55368;SDS011;41247;49.736;8.752;2024-01-06T14:11:49;27.00;;;11.48;;
55368;SDS011;41247;49.736;8.752;2024-01-06T14:15:30;24.45;;;13.48;;
55368;SDS011;41247;49.736;8.752;2024-01-06T14:19:10;30.73;;;13.43;;
55368;SDS011;41247;49.736;8.752;2024-01-06T14:22:51;25.88;;;12.57;;
55368;SDS011;41247;49.736;8.752;2024-01-06T14:26:32;28.05;;;13.30;;
55368;SDS011;41247;49.736;8.752;2024-01-06T14:30:15;27.48;;;14.13;;
55368;SDS011;41247;49.736;8.752;2024-01-06T14:33:55;27.52;;;12.88;;
55368;SDS011;41247;49.736;8.752;2024-01-06T14:37:36;27.00;;;12.98;;
55368;SDS011;41247;49.736;8.752;2024-01-06T14:41:17;28.58;;;12.98;;
55368;SDS011;41247;49.736;8.752;2024-01-06T14:44:58;25.80;;;12.63;;
55368;SDS011;41247;49.736;8.752;2024-01-06T14:48:39;27.35;;;11.55;;
55368;SDS011;41247;49.736;8.752;2024-01-06T14:52:20;24.73;;;12.00;;
55368;SDS011;41247;49.736;8.752;2024-01-06T14:56:00;26.88;;;11.68;;
55368;SDS011;41247;49.736;8.752;2024-01-06T14:59:41;34.72;;;15.02;;
55368;SDS011;41247;49.736;8.752;2024-01-06T15:03:22;25.50;;;13.27;;
55368;SDS011;41247;49.736;8.752;2024-01-06T15:07:03;29.50;;;13.27;;
55368;SDS011;41247;49.736;8.752;2024-01-06T15:10:43;24.55;;;11.80;;
55368;SDS011;41247;49.736;8.752;2024-01-06T15:14:24;19.52;;;10.77;;
55368;SDS011;41247;49.736;8.752;2024-01-06T15:18:04;22.23;;;10.95;;
55368;SDS011;41247;49.736;8.752;2024-01-06T15:21:45;32.75;;;14.02;;
55368;SDS011;41247;49.736;8.752;2024-01-06T15:25:26;27.35;;;14.02;;
55368;SDS011;41247;49.736;8.752;2024-01-06T15:29:06;26.40;;;12.80;;
55368;SDS011;41247;49.736;8.752;2024-01-06T15:32:47;26.05;;;14.20;;
55368;SDS011;41247;49.736;8.752;2024-01-06T15:36:27;27.58;;;14.23;;
55368;SDS011;41247;49.736;8.752;2024-01-06T15:40:08;25.50;;;12.48;;
55368;SDS011;41247;49.736;8.752;2024-01-06T15:43:49;31.55;;;16.02;;
55368;SDS011;41247;49.736;8.752;2024-01-06T15:47:29;32.83;;;17.50;;
55368;SDS011;41247;49.736;8.752;2024-01-06T15:51:11;26.20;;;14.32;;
55368;SDS011;41247;49.736;8.752;2024-01-06T15:54:53;27.00;;;14.38;;
55368;SDS011;41247;49.736;8.752;2024-01-06T15:58:33;23.35;;;13.60;;
55368;SDS011;41247;49.736;8.752;2024-01-06T16:02:14;27.25;;;13.75;;
55368;SDS011;41247;49.736;8.752;2024-01-06T16:05:54;24.23;;;13.18;;
55368;SDS011;41247;49.736;8.752;2024-01-06T16:09:35;25.70;;;14.00;;
55368;SDS011;41247;49.736;8.752;2024-01-06T16:13:16;27.15;;;13.65;;
55368;SDS011;41247;49.736;8.752;2024-01-06T16:16:56;26.42;;;12.75;;
55368;SDS011;41247;49.736;8.752;2024-01-06T16:20:37;32.83;;;15.25;;
55368;SDS011;41247;49.736;8.752;2024-01-06T16:24:17;27.30;;;12.65;;
55368;SDS011;41247;49.736;8.752;2024-01-06T16:27:58;32.22;;;15.40;;
55368;SDS011;41247;49.736;8.752;2024-01-06T16:31:39;36.15;;;16.75;;
55368;SDS011;41247;49.736;8.752;2024-01-06T16:35:19;37.30;;;18.60;;
55368;SDS011;41247;49.736;8.752;2024-01-06T16:39:00;35.38;;;17.20;;
55368;SDS011;41247;49.736;8.752;2024-01-06T16:42:40;34.10;;;16.00;;
55368;SDS011;41247;49.736;8.752;2024-01-06T16:46:21;33.40;;;16.13;;
55368;SDS011;41247;49.736;8.752;2024-01-06T16:50:02;31.23;;;15.85;;
55368;SDS011;41247;49.736;8.752;2024-01-06T16:53:42;36.72;;;17.92;;
55368;SDS011;41247;49.736;8.752;2024-01-06T16:57:23;42.78;;;19.55;;
55368;SDS011;41247;49.736;8.752;2024-01-06T17:01:04;32.00;;;17.65;;
55368;SDS011;41247;49.736;8.752;2024-01-06T17:04:44;30.55;;;16.15;;
55368;SDS011;41247;49.736;8.752;2024-01-06T17:08:25;36.08;;;18.10;;
55368;SDS011;41247;49.736;8.752;2024-01-06T17:12:05;32.35;;;16.40;;
55368;SDS011;41247;49.736;8.752;2024-01-06T17:15:47;38.17;;;17.65;;
55368;SDS011;41247;49.736;8.752;2024-01-06T17:19:27;32.92;;;17.17;;
55368;SDS011;41247;49.736;8.752;2024-01-06T17:23:14;35.08;;;16.60;;
55368;SDS011;41247;49.736;8.752;2024-01-06T17:26:55;37.78;;;18.05;;
55368;SDS011;41247;49.736;8.752;2024-01-06T17:30:35;28.85;;;14.98;;
55368;SDS011;41247;49.736;8.752;2024-01-06T17:34:16;31.67;;;16.08;;
55368;SDS011;41247;49.736;8.752;2024-01-06T17:37:56;28.50;;;14.90;;
55368;SDS011;41247;49.736;8.752;2024-01-06T17:41:37;21.75;;;12.20;;
55368;SDS011;41247;49.736;8.752;2024-01-06T17:45:17;18.08;;;10.25;;
55368;SDS011;41247;49.736;8.752;2024-01-06T17:48:58;15.88;;;8.73;;
55368;SDS011;41247;49.736;8.752;2024-01-06T17:52:39;18.88;;;9.88;;
55368;SDS011;41247;49.736;8.752;2024-01-06T17:56:19;23.05;;;11.70;;
55368;SDS011;41247;49.736;8.752;2024-01-06T18:00:03;15.90;;;8.95;;
55368;SDS011;41247;49.736;8.752;2024-01-06T18:03:44;17.00;;;8.93;;
55368;SDS011;41247;49.736;8.752;2024-01-06T18:07:25;13.90;;;7.50;;
55368;SDS011;41247;49.736;8.752;2024-01-06T18:11:05;13.80;;;7.25;;
55368;SDS011;41247;49.736;8.752;2024-01-06T18:14:46;13.73;;;8.55;;
55368;SDS011;41247;49.736;8.752;2024-01-06T18:18:26;15.65;;;8.13;;
55368;SDS011;41247;49.736;8.752;2024-01-06T18:22:07;18.20;;;8.45;;
55368;SDS011;41247;49.736;8.752;2024-01-06T18:25:48;16.23;;;8.32;;
55368;SDS011;41247;49.736;8.752;2024-01-06T18:29:28;16.13;;;8.68;;
55368;SDS011;41247;49.736;8.752;2024-01-06T18:33:09;15.52;;;8.38;;
55368;SDS011;41247;49.736;8.752;2024-01-06T18:36:50;16.02;;;8.50;;
55368;SDS011;41247;49.736;8.752;2024-01-06T18:40:31;18.27;;;8.98;;
55368;SDS011;41247;49.736;8.752;2024-01-06T18:44:11;17.30;;;8.82;;
55368;SDS011;41247;49.736;8.752;2024-01-06T18:47:52;16.05;;;7.65;;
55368;SDS011;41247;49.736;8.752;2024-01-06T18:51:33;17.50;;;8.02;;
55368;SDS011;41247;49.736;8.752;2024-01-06T18:55:14;15.77;;;7.60;;
55368;SDS011;41247;49.736;8.752;2024-01-06T18:58:55;15.70;;;7.60;;
55368;SDS011;41247;49.736;8.752;2024-01-06T19:02:37;13.50;;;7.40;;
55368;SDS011;41247;49.736;8.752;2024-01-06T19:06:17;15.90;;;7.25;;
55368;SDS011;41247;49.736;8.752;2024-01-06T19:10:00;14.30;;;7.43;;
55368;SDS011;41247;49.736;8.752;2024-01-06T19:13:40;16.48;;;7.20;;
55368;SDS011;41247;49.736;8.752;2024-01-06T19:17:21;13.55;;;6.80;;
55368;SDS011;41247;49.736;8.752;2024-01-06T19:21:02;16.95;;;7.95;;
55368;SDS011;41247;49.736;8.752;2024-01-06T19:24:42;16.42;;;7.95;;
55368;SDS011;41247;49.736;8.752;2024-01-06T19:28:23;16.15;;;7.65;;
55368;SDS011;41247;49.736;8.752;2024-01-06T19:32:03;17.35;;;7.90;;
55368;SDS011;41247;49.736;8.752;2024-01-06T19:35:44;16.35;;;8.05;;
55368;SDS011;41247;49.736;8.752;2024-01-06T19:39:25;17.90;;;8.68;;
55368;SDS011;41247;49.736;8.752;2024-01-06T19:43:06;22.85;;;8.60;;
55368;SDS011;41247;49.736;8.752;2024-01-06T19:46:47;22.33;;;9.60;;
55368;SDS011;41247;49.736;8.752;2024-01-06T19:50:28;24.08;;;9.50;;
55368;SDS011;41247;49.736;8.752;2024-01-06T19:54:08;24.08;;;10.52;;
55368;SDS011;41247;49.736;8.752;2024-01-06T19:57:49;27.65;;;11.27;;
55368;SDS011;41247;49.736;8.752;2024-01-06T20:01:32;28.17;;;11.80;;
55368;SDS011;41247;49.736;8.752;2024-01-06T20:05:14;25.65;;;11.02;;
55368;SDS011;41247;49.736;8.752;2024-01-06T20:08:54;27.80;;;11.40;;
55368;SDS011;41247;49.736;8.752;2024-01-06T20:12:35;25.70;;;10.85;;
55368;SDS011;41247;49.736;8.752;2024-01-06T20:16:15;27.92;;;11.57;;
55368;SDS011;41247;49.736;8.752;2024-01-06T20:19:57;31.90;;;12.70;;
55368;SDS011;41247;49.736;8.752;2024-01-06T20:23:38;32.35;;;12.40;;
55368;SDS011;41247;49.736;8.752;2024-01-06T20:27:21;32.03;;;12.20;;
55368;SDS011;41247;49.736;8.752;2024-01-06T20:31:02;32.70;;;12.23;;
55368;SDS011;41247;49.736;8.752;2024-01-06T20:34:42;35.20;;;13.15;;
55368;SDS011;41247;49.736;8.752;2024-01-06T20:38:29;33.22;;;13.35;;
55368;SDS011;41247;49.736;8.752;2024-01-06T20:42:09;34.40;;;13.18;;
55368;SDS011;41247;49.736;8.752;2024-01-06T20:45:50;34.63;;;12.75;;
55368;SDS011;41247;49.736;8.752;2024-01-06T20:49:30;33.15;;;13.68;;
55368;SDS011;41247;49.736;8.752;2024-01-06T20:53:11;37.28;;;12.55;;
55368;SDS011;41247;49.736;8.752;2024-01-06T20:56:52;34.97;;;12.88;;
55368;SDS011;41247;49.736;8.752;2024-01-06T21:00:33;38.60;;;14.23;;
55368;SDS011;41247;49.736;8.752;2024-01-06T21:04:13;37.28;;;14.07;;
55368;SDS011;41247;49.736;8.752;2024-01-06T21:07:55;45.30;;;15.43;;
55368;SDS011;41247;49.736;8.752;2024-01-06T21:11:35;35.13;;;13.05;;
55368;SDS011;41247;49.736;8.752;2024-01-06T21:15:16;36.00;;;13.95;;
55368;SDS011;41247;49.736;8.752;2024-01-06T21:18:58;39.33;;;14.00;;
55368;SDS011;41247;49.736;8.752;2024-01-06T21:22:38;33.17;;;13.25;;
55368;SDS011;41247;49.736;8.752;2024-01-06T21:26:19;41.58;;;14.50;;
55368;SDS011;41247;49.736;8.752;2024-01-06T21:30:00;38.08;;;13.88;;
55368;SDS011;41247;49.736;8.752;2024-01-06T21:33:41;38.90;;;14.57;;
55368;SDS011;41247;49.736;8.752;2024-01-06T21:37:21;39.47;;;15.02;;
55368;SDS011;41247;49.736;8.752;2024-01-06T21:41:02;40.17;;;14.43;;
55368;SDS011;41247;49.736;8.752;2024-01-06T21:44:42;37.38;;;14.07;;
55368;SDS011;41247;49.736;8.752;2024-01-06T21:48:23;39.30;;;14.13;;
55368;SDS011;41247;49.736;8.752;2024-01-06T21:52:04;41.67;;;14.57;;
55368;SDS011;41247;49.736;8.752;2024-01-06T21:55:44;41.00;;;15.48;;
55368;SDS011;41247;49.736;8.752;2024-01-06T21:59:25;44.03;;;15.38;;